Time;durP1;ratioP1;P1;durP2;ratioP2;P2;SDS_P1;SDS_P2;PMS_P1;PMS_P2;Temp;Humidity;BMP_temperature;BMP_pressure;BME280_temperature;BME280_humidity;BME280_pressure;Samples;Min_cycle;Max_cycle;Signal;HPM_P1;HPM_P2
2023/08/24 00:00:51;;;;;;;8.15;6.10;;;16.50;99.90;;;;;;4992014;28;20116;-76
2023/08/24 00:03:16;;;;;;;11.27;5.97;;;16.50;99.90;;;;;;4990030;28;20139;-76
2023/08/24 00:05:42;;;;;;;9.63;6.22;;;16.50;99.90;;;;;;5005398;28;20042;-75
2023/08/24 00:08:09;;;;;;;8.00;5.65;;;16.40;99.90;;;;;;5030907;28;20050;-76
2023/08/24 00:10:35;;;;;;;8.05;5.57;;;16.40;99.90;;;;;;4984667;28;20120;-76
2023/08/24 00:13:02;;;;;;;8.70;5.68;;;16.40;99.90;;;;;;5027834;28;20038;-76
2023/08/24 00:15:28;;;;;;;10.05;5.72;;;16.30;99.90;;;;;;5014319;28;20050;-75
2023/08/24 00:17:54;;;;;;;8.93;5.93;;;16.30;99.90;;;;;;5011164;28;20113;-76
2023/08/24 00:20:20;;;;;;;10.70;5.97;;;16.30;99.90;;;;;;5015186;28;20145;-76
2023/08/24 00:22:46;;;;;;;6.65;5.30;;;16.20;99.90;;;;;;5023668;28;20542;-76
2023/08/24 00:25:12;;;;;;;8.40;4.70;;;16.20;99.90;;;;;;5016979;28;20050;-76
2023/08/24 00:27:38;;;;;;;8.43;6.22;;;16.10;99.90;;;;;;5008257;28;20049;-75
2023/08/24 00:30:06;;;;;;;9.43;5.07;;;16.10;99.90;;;;;;5000983;28;20482;-76
2023/08/24 00:32:34;;;;;;;6.97;4.93;;;16.10;99.90;;;;;;5014857;28;20037;-76
2023/08/24 00:35:05;;;;;;;7.28;5.18;;;16.10;99.90;;;;;;5011313;28;20030;-76
2023/08/24 00:37:31;;;;;;;5.70;4.72;;;16.00;99.90;;;;;;5040653;28;20123;-76
2023/08/24 00:39:59;;;;;;;9.50;6.22;;;16.00;99.90;;;;;;5001362;28;20041;-76
2023/08/24 00:42:25;;;;;;;7.25;5.68;;;15.90;99.90;;;;;;5026795;28;20094;-76
2023/08/24 00:44:51;;;;;;;6.70;5.50;;;15.90;99.90;;;;;;5034790;28;20121;-75
2023/08/24 00:47:18;;;;;;;10.13;5.40;;;15.90;99.90;;;;;;5029926;28;20563;-76
2023/08/24 00:49:43;;;;;;;7.47;5.95;;;15.90;99.90;;;;;;4989116;28;20041;-76
2023/08/24 00:52:10;;;;;;;7.75;6.03;;;15.90;99.90;;;;;;4976492;28;20141;-75
2023/08/24 00:54:38;;;;;;;7.07;6.13;;;15.90;99.90;;;;;;5027922;28;20100;-76
2023/08/24 00:57:05;;;;;;;9.40;6.78;;;15.90;99.90;;;;;;5031884;28;20048;-76
2023/08/24 00:59:31;;;;;;;12.23;6.95;;;15.90;99.90;;;;;;5009149;28;20038;-76
2023/08/24 01:01:58;;;;;;;9.30;7.00;;;15.90;99.90;;;;;;4991447;28;20051;-76
2023/08/24 01:04:24;;;;;;;12.98;8.02;;;15.90;99.90;;;;;;5041674;28;20458;-75
2023/08/24 01:06:52;;;;;;;13.65;8.27;;;15.80;99.90;;;;;;4999502;28;20098;-76
2023/08/24 01:09:19;;;;;;;15.25;8.18;;;15.90;99.90;;;;;;4987565;28;20049;-76
2023/08/24 01:11:56;;;;;;;15.88;8.63;;;15.80;99.90;;;;;;4991479;28;20523;-76
2023/08/24 01:14:28;;;;;;;9.68;7.00;;;15.80;99.90;;;;;;5040412;28;20044;-76
2023/08/24 01:17:00;;;;;;;5.78;5.18;;;15.80;99.90;;;;;;5007432;28;20029;-76
2023/08/24 01:19:39;;;;;;;6.93;4.40;;;15.80;99.90;;;;;;5023920;28;20108;-76
2023/08/24 01:22:31;;;;;;;5.50;4.50;;;15.70;99.90;;;;;;5008894;28;20499;-76
2023/08/24 01:25:36;;;;;;;7.65;5.25;;;15.60;99.90;;;;;;5002260;28;20491;-75
2023/08/24 01:28:03;;;;;;;7.65;5.95;;;15.50;99.90;;;;;;4999642;28;20492;-76
2023/08/24 01:30:30;;;;;;;15.13;7.97;;;15.60;99.90;;;;;;5022944;28;20542;-76
2023/08/24 01:32:56;;;;;;;10.60;7.35;;;15.60;99.90;;;;;;5026144;28;20030;-75
2023/08/24 01:35:25;;;;;;;9.95;7.70;;;15.60;99.90;;;;;;5002349;28;20501;-75
2023/08/24 01:37:50;;;;;;;11.32;7.50;;;15.70;99.90;;;;;;4994389;28;20042;-76
2023/08/24 01:40:44;;;;;;;11.93;8.52;;;15.70;99.90;;;;;;5009056;28;20128;-75
2023/08/24 01:43:12;;;;;;;11.68;9.00;;;15.70;99.90;;;;;;5001607;28;20118;-74
2023/08/24 01:45:41;;;;;;;13.88;8.50;;;15.80;99.90;;;;;;5005094;28;20093;-75
2023/08/24 01:48:09;;;;;;;12.00;8.18;;;15.80;99.90;;;;;;5017567;28;20038;-75
2023/08/24 01:50:35;;;;;;;14.48;8.63;;;15.80;99.90;;;;;;5004397;28;20063;-76
2023/08/24 01:53:03;;;;;;;12.73;8.70;;;15.90;99.90;;;;;;5044920;28;20579;-75
2023/08/24 01:55:28;;;;;;;10.82;7.07;;;15.80;99.90;;;;;;5008405;28;20160;-76
2023/08/24 01:57:56;;;;;;;11.65;7.80;;;15.90;99.90;;;;;;5041780;28;20117;-76
2023/08/24 02:00:22;;;;;;;11.50;7.15;;;15.90;99.90;;;;;;5005562;28;20076;-76
2023/08/24 02:02:47;;;;;;;9.18;7.88;;;15.90;99.90;;;;;;4989573;28;20061;-76
2023/08/24 02:05:13;;;;;;;11.02;7.65;;;15.90;99.90;;;;;;5021001;28;20384;-76
2023/08/24 02:07:40;;;;;;;10.45;7.88;;;15.90;99.90;;;;;;4993908;28;20038;-76
2023/08/24 02:10:07;;;;;;;10.80;7.18;;;15.90;99.90;;;;;;5032731;28;20512;-76
2023/08/24 02:12:32;;;;;;;12.23;8.32;;;15.90;99.90;;;;;;5006153;28;20193;-76
2023/08/24 02:14:58;;;;;;;9.80;7.78;;;15.90;99.90;;;;;;5002711;28;20504;-76
2023/08/24 02:17:25;;;;;;;13.82;8.10;;;15.90;99.90;;;;;;5013178;28;20042;-76
2023/08/24 02:19:51;;;;;;;12.32;8.77;;;15.90;99.90;;;;;;5048085;28;20118;-75
2023/08/24 02:22:17;;;;;;;9.73;8.23;;;16.00;99.90;;;;;;5042024;28;20116;-75
2023/08/24 02:24:43;;;;;;;14.40;8.98;;;16.00;99.90;;;;;;5004963;28;20049;-75
2023/08/24 02:27:08;;;;;;;10.95;8.38;;;16.00;99.90;;;;;;4999940;28;20122;-75
2023/08/24 02:29:34;;;;;;;13.25;8.63;;;16.00;99.90;;;;;;5000100;28;20128;-75
2023/08/24 02:32:00;;;;;;;14.50;9.48;;;16.00;99.90;;;;;;4995645;28;20500;-74
2023/08/24 02:34:26;;;;;;;12.43;8.23;;;16.10;99.90;;;;;;5026012;28;20519;-75
2023/08/24 02:36:52;;;;;;;11.23;8.35;;;16.10;99.90;;;;;;4976118;28;20042;-75
2023/08/24 02:39:17;;;;;;;16.98;9.68;;;16.10;99.90;;;;;;5025251;28;20050;-75
2023/08/24 02:41:43;;;;;;;17.75;9.38;;;16.10;99.90;;;;;;4994680;28;20046;-75
2023/08/24 02:44:09;;;;;;;14.00;9.25;;;16.10;99.90;;;;;;5008369;28;20048;-74
2023/08/24 02:46:35;;;;;;;12.60;9.18;;;16.10;99.90;;;;;;5024323;28;20050;-75
2023/08/24 02:49:01;;;;;;;11.68;8.88;;;16.10;99.90;;;;;;4996754;28;20475;-74
2023/08/24 02:51:26;;;;;;;12.63;9.15;;;16.10;99.90;;;;;;5012026;28;20049;-75
2023/08/24 02:53:52;;;;;;;14.32;9.68;;;16.10;99.90;;;;;;5012953;28;20041;-74
2023/08/24 02:56:18;;;;;;;14.77;9.65;;;16.10;99.90;;;;;;5022992;28;20475;-74
2023/08/24 02:58:43;;;;;;;14.07;7.95;;;16.10;99.90;;;;;;4981054;28;20038;-74
2023/08/24 03:01:09;;;;;;;10.98;8.85;;;16.10;99.90;;;;;;5014388;28;20132;-75
2023/08/24 03:03:36;;;;;;;12.68;8.93;;;16.10;99.90;;;;;;5026085;28;20050;-74
2023/08/24 03:06:06;;;;;;;13.60;9.43;;;16.10;99.90;;;;;;5029098;28;20034;-74
2023/08/24 03:08:33;;;;;;;15.75;9.20;;;16.10;99.90;;;;;;5021452;28;20046;-74
2023/08/24 03:11:00;;;;;;;13.48;9.27;;;16.10;99.90;;;;;;5030638;28;20526;-75
2023/08/24 03:13:27;;;;;;;14.57;9.68;;;16.10;99.90;;;;;;5029725;28;20050;-75
2023/08/24 03:15:53;;;;;;;12.90;9.43;;;16.10;99.90;;;;;;5028252;28;20108;-74
2023/08/24 03:18:20;;;;;;;15.23;9.98;;;16.10;99.90;;;;;;4997363;28;20430;-68
2023/08/24 03:20:46;;;;;;;11.55;9.38;;;16.10;99.90;;;;;;5012457;28;20068;-68
2023/08/24 03:23:12;;;;;;;13.73;10.35;;;16.00;99.90;;;;;;5011180;28;20137;-68
2023/08/24 03:25:41;;;;;;;11.85;9.60;;;16.00;99.90;;;;;;5009227;28;20046;-68
2023/08/24 03:28:08;;;;;;;13.43;8.48;;;16.00;99.90;;;;;;5042238;28;20042;-68
2023/08/24 03:30:38;;;;;;;12.15;9.27;;;16.00;99.90;;;;;;5009491;28;20125;-68
2023/08/24 03:33:05;;;;;;;10.48;8.38;;;16.00;99.90;;;;;;5012071;28;20041;-68
2023/08/24 03:35:31;;;;;;;10.88;8.77;;;16.00;99.90;;;;;;5007169;28;20034;-68
2023/08/24 03:37:57;;;;;;;12.98;8.30;;;15.90;99.90;;;;;;4992457;28;20057;-68
2023/08/24 03:40:23;;;;;;;11.05;8.85;;;15.90;99.90;;;;;;5031399;28;20035;-67
2023/08/24 03:42:49;;;;;;;12.68;9.30;;;15.90;99.90;;;;;;4994488;28;20034;-67
2023/08/24 03:45:14;;;;;;;12.05;9.10;;;15.90;99.90;;;;;;5000339;28;20556;-67
2023/08/24 03:47:40;;;;;;;15.35;9.70;;;15.80;99.90;;;;;;5037901;28;20042;-67
2023/08/24 03:50:06;;;;;;;12.93;9.48;;;15.80;99.90;;;;;;5028460;28;20117;-67
2023/08/24 03:52:33;;;;;;;13.80;9.60;;;15.70;99.90;;;;;;5030508;28;20050;-67
2023/08/24 03:54:59;;;;;;;15.23;9.55;;;15.70;99.90;;;;;;5008298;28;20038;-67
2023/08/24 03:57:24;;;;;;;18.38;11.05;;;15.70;99.90;;;;;;4995880;28;20455;-68
2023/08/24 03:59:50;;;;;;;12.07;9.00;;;15.70;99.90;;;;;;4999130;28;20096;-67
2023/08/24 04:02:16;;;;;;;11.27;9.32;;;15.60;99.90;;;;;;4995563;28;20042;-67
2023/08/24 04:04:42;;;;;;;14.25;9.85;;;15.60;99.90;;;;;;5005450;28;20041;-67
2023/08/24 04:07:07;;;;;;;14.60;10.27;;;15.60;99.90;;;;;;4999119;28;20045;-67
2023/08/24 04:09:33;;;;;;;13.18;10.57;;;15.60;99.90;;;;;;4996321;28;20554;-67
2023/08/24 04:11:59;;;;;;;12.98;9.60;;;15.60;99.90;;;;;;5019463;28;20044;-67
2023/08/24 04:14:24;;;;;;;16.83;10.40;;;15.50;99.90;;;;;;5007240;28;20045;-67
2023/08/24 04:16:50;;;;;;;16.38;9.93;;;15.50;99.90;;;;;;4999965;28;20121;-68
2023/08/24 04:19:16;;;;;;;12.85;10.25;;;15.50;99.90;;;;;;4984237;28;20638;-68
2023/08/24 04:21:41;;;;;;;15.32;9.88;;;15.50;99.90;;;;;;4995758;28;20038;-68
2023/08/24 04:24:07;;;;;;;13.27;9.80;;;15.40;99.90;;;;;;5032270;28;20488;-67
2023/08/24 04:26:33;;;;;;;14.13;9.98;;;15.40;99.90;;;;;;4987631;28;20038;-67
2023/08/24 04:28:59;;;;;;;14.45;9.75;;;15.30;99.90;;;;;;4993210;28;20042;-67
2023/08/24 04:31:24;;;;;;;14.55;10.70;;;15.30;99.90;;;;;;4998921;28;20038;-68
2023/08/24 04:33:50;;;;;;;13.05;10.07;;;15.30;99.90;;;;;;5007040;28;20045;-67
2023/08/24 04:36:16;;;;;;;13.13;9.93;;;15.30;99.90;;;;;;5006320;28;20050;-68
2023/08/24 04:38:41;;;;;;;18.52;9.98;;;15.30;99.90;;;;;;5012100;28;20419;-67
2023/08/24 04:41:09;;;;;;;12.68;9.60;;;15.30;99.90;;;;;;4996470;28;20389;-67
2023/08/24 04:43:36;;;;;;;12.48;9.55;;;15.20;99.90;;;;;;4995260;28;20080;-68
2023/08/24 04:46:02;;;;;;;14.20;9.52;;;15.20;99.90;;;;;;4987432;28;20054;-68
2023/08/24 04:48:32;;;;;;;14.95;8.70;;;15.20;99.90;;;;;;4995042;28;20129;-68
2023/08/24 04:50:58;;;;;;;9.77;7.82;;;15.20;99.90;;;;;;4996429;28;20060;-68
2023/08/24 04:53:24;;;;;;;13.25;8.30;;;15.20;99.90;;;;;;5026662;28;20058;-68
2023/08/24 04:55:50;;;;;;;10.15;7.65;;;15.10;99.90;;;;;;4990903;28;20044;-67
2023/08/24 04:58:16;;;;;;;9.50;7.97;;;15.10;99.90;;;;;;5012225;28;20498;-68
2023/08/24 05:00:42;;;;;;;10.65;7.38;;;15.20;99.90;;;;;;4998164;28;20053;-68
2023/08/24 05:03:08;;;;;;;11.45;7.13;;;15.10;99.90;;;;;;5014786;28;21792;-68
2023/08/24 05:05:34;;;;;;;10.52;8.25;;;15.10;99.90;;;;;;5030207;28;20034;-68
2023/08/24 05:08:02;;;;;;;9.63;6.88;;;15.10;99.90;;;;;;4995808;28;20038;-68
2023/08/24 05:10:31;;;;;;;9.95;8.10;;;15.10;99.90;;;;;;5011806;28;20038;-68
2023/08/24 05:12:57;;;;;;;14.55;8.75;;;15.10;99.90;;;;;;4982802;28;20038;-67
2023/08/24 05:15:23;;;;;;;9.88;8.52;;;15.10;99.90;;;;;;5006700;28;20400;-67
2023/08/24 05:17:50;;;;;;;12.30;8.95;;;15.20;99.90;;;;;;5035108;28;20042;-67
2023/08/24 05:20:15;;;;;;;11.27;8.15;;;15.20;99.90;;;;;;4987181;28;20041;-67
2023/08/24 05:22:41;;;;;;;10.55;8.55;;;15.20;99.90;;;;;;4992913;28;20034;-68
2023/08/24 05:25:07;;;;;;;12.90;9.02;;;15.20;99.90;;;;;;5000007;28;20033;-68
2023/08/24 05:27:33;;;;;;;12.05;8.85;;;15.20;99.90;;;;;;5000948;28;20499;-68
2023/08/24 05:29:58;;;;;;;13.88;9.07;;;15.20;99.90;;;;;;4989848;28;20117;-67
2023/08/24 05:32:24;;;;;;;13.45;9.15;;;15.30;99.90;;;;;;4997769;28;20033;-68
2023/08/24 05:34:50;;;;;;;11.48;8.73;;;15.30;99.90;;;;;;4989574;28;20488;-68
2023/08/24 05:37:16;;;;;;;15.15;9.68;;;15.30;99.90;;;;;;4997981;28;20090;-68
2023/08/24 05:39:42;;;;;;;13.15;9.25;;;15.40;99.90;;;;;;5024395;28;20042;-67
2023/08/24 05:42:09;;;;;;;12.02;8.80;;;15.50;99.90;;;;;;4992185;28;20073;-68
2023/08/24 05:44:35;;;;;;;11.52;8.70;;;15.50;99.90;;;;;;4998372;28;20038;-68
2023/08/24 05:47:00;;;;;;;13.70;8.88;;;15.50;99.90;;;;;;4986413;28;20045;-67
2023/08/24 05:49:26;;;;;;;14.13;9.60;;;15.60;99.90;;;;;;5005711;28;20526;-68
2023/08/24 05:51:52;;;;;;;13.18;8.43;;;15.70;99.90;;;;;;5002046;28;20527;-68
2023/08/24 05:54:21;;;;;;;13.40;8.55;;;15.70;99.90;;;;;;4993093;28;20042;-68
2023/08/24 05:56:47;;;;;;;16.73;8.63;;;15.80;99.90;;;;;;4990392;28;20030;-68
2023/08/24 05:59:14;;;;;;;12.38;8.93;;;15.80;99.90;;;;;;4986615;28;20125;-68
2023/08/24 06:01:41;;;;;;;16.08;8.63;;;15.80;99.90;;;;;;5011139;28;20050;-68
2023/08/24 06:04:08;;;;;;;11.60;8.75;;;15.90;99.90;;;;;;4996442;28;20134;-68
2023/08/24 06:06:37;;;;;;;10.90;8.85;;;15.90;99.90;;;;;;4992644;28;20046;-68
2023/08/24 06:09:04;;;;;;;15.05;8.43;;;15.90;99.90;;;;;;4992607;28;20041;-68
2023/08/24 06:11:30;;;;;;;13.73;8.35;;;16.00;99.90;;;;;;5020407;28;20043;-68
2023/08/24 06:13:56;;;;;;;11.55;8.65;;;16.00;99.90;;;;;;5009012;28;20491;-68
2023/08/24 06:16:22;;;;;;;14.60;8.82;;;16.10;99.90;;;;;;5007902;28;20504;-67
2023/08/24 06:18:49;;;;;;;11.40;8.63;;;16.20;99.90;;;;;;5011497;28;20034;-67
2023/08/24 06:21:16;;;;;;;13.07;8.80;;;16.20;99.90;;;;;;4997723;28;20038;-67
2023/08/24 06:23:44;;;;;;;13.13;8.52;;;16.20;99.90;;;;;;5007363;28;20038;-67
2023/08/24 06:26:11;;;;;;;17.17;8.90;;;16.30;99.90;;;;;;4998855;28;20176;-67
2023/08/24 06:28:37;;;;;;;15.07;8.88;;;16.40;99.90;;;;;;4972220;28;20045;-67
2023/08/24 06:31:02;;;;;;;18.00;9.80;;;16.50;99.90;;;;;;5021874;28;20045;-67
2023/08/24 06:33:29;;;;;;;14.60;9.55;;;16.60;99.90;;;;;;5003889;28;20041;-67
2023/08/24 06:35:57;;;;;;;12.88;9.27;;;16.70;99.90;;;;;;5039244;28;20494;-67
2023/08/24 06:38:22;;;;;;;18.23;8.98;;;16.80;99.90;;;;;;5036065;28;20038;-68
2023/08/24 06:40:48;;;;;;;15.30;9.70;;;16.90;99.90;;;;;;5002153;28;20494;-67
2023/08/24 06:43:14;;;;;;;14.30;10.32;;;16.90;99.90;;;;;;5001499;28;20088;-67
2023/08/24 06:45:41;;;;;;;20.10;10.95;;;17.00;99.90;;;;;;5023966;28;20099;-68
2023/08/24 06:48:07;;;;;;;18.90;10.32;;;17.10;99.90;;;;;;5006577;28;20045;-68
2023/08/24 06:50:33;;;;;;;19.90;11.27;;;17.20;99.90;;;;;;5002411;28;20089;-68
2023/08/24 06:52:59;;;;;;;17.27;11.13;;;17.20;99.90;;;;;;5002285;28;20057;-68
2023/08/24 06:55:27;;;;;;;20.50;10.73;;;17.40;99.90;;;;;;5035080;28;20042;-67
2023/08/24 06:57:53;;;;;;;19.58;10.93;;;17.40;99.90;;;;;;5022030;28;20095;-67
2023/08/24 07:00:21;;;;;;;16.33;10.68;;;17.50;99.90;;;;;;5008497;28;20117;-68
2023/08/24 07:02:48;;;;;;;13.60;9.77;;;17.60;99.90;;;;;;5010394;28;20045;-68
2023/08/24 07:05:14;;;;;;;15.52;10.93;;;17.70;99.90;;;;;;5027575;28;20038;-67
2023/08/24 07:07:43;;;;;;;22.42;11.15;;;17.80;99.90;;;;;;5022852;28;20100;-67
2023/08/24 07:10:09;;;;;;;20.95;11.75;;;17.90;99.90;;;;;;5011026;28;20038;-67
2023/08/24 07:12:34;;;;;;;16.42;10.75;;;18.10;99.90;;;;;;4986672;28;20057;-67
2023/08/24 07:15:00;;;;;;;20.30;12.20;;;18.20;99.90;;;;;;5036089;28;20045;-67
2023/08/24 07:17:26;;;;;;;18.17;11.48;;;18.30;99.90;;;;;;5009693;28;20390;-67
2023/08/24 07:19:52;;;;;;;25.25;12.45;;;18.50;99.90;;;;;;5024774;28;20038;-67
2023/08/24 07:22:18;;;;;;;22.15;13.27;;;18.60;99.90;;;;;;5009922;28;20052;-67
2023/08/24 07:24:43;;;;;;;18.02;11.40;;;18.70;99.90;;;;;;5034563;28;20049;-67
2023/08/24 07:27:09;;;;;;;14.25;11.02;;;18.90;99.90;;;;;;5008519;28;20048;-67
2023/08/24 07:29:35;;;;;;;22.85;12.00;;;19.00;99.90;;;;;;4993597;28;20073;-67
2023/08/24 07:32:01;;;;;;;16.65;11.60;;;19.10;99.90;;;;;;5010005;28;20080;-67
2023/08/24 07:34:28;;;;;;;17.90;11.38;;;19.20;99.90;;;;;;5009510;28;20033;-67
2023/08/24 07:36:55;;;;;;;15.35;10.07;;;19.30;99.90;;;;;;5016820;28;20103;-68
2023/08/24 07:39:21;;;;;;;14.88;10.52;;;19.40;99.90;;;;;;5013565;28;20479;-67
2023/08/24 07:41:47;;;;;;;16.73;10.43;;;19.50;99.90;;;;;;5006732;28;20048;-67
2023/08/24 07:44:12;;;;;;;15.95;10.35;;;19.60;99.90;;;;;;5007978;28;20469;-68
2023/08/24 07:46:40;;;;;;;13.75;9.80;;;19.80;99.90;;;;;;5025298;28;20092;-68
2023/08/24 07:49:05;;;;;;;14.23;9.73;;;19.90;99.90;;;;;;5005701;28;20048;-68
2023/08/24 07:51:33;;;;;;;17.65;10.00;;;20.00;99.90;;;;;;5008126;28;20046;-67
2023/08/24 07:53:59;;;;;;;16.60;10.60;;;20.10;99.90;;;;;;5038822;28;20107;-67
2023/08/24 07:56:25;;;;;;;14.43;10.27;;;20.20;99.90;;;;;;5039095;28;20037;-68
2023/08/24 07:58:51;;;;;;;16.67;11.38;;;20.30;99.90;;;;;;5005157;28;20082;-67
2023/08/24 08:01:17;;;;;;;15.75;10.20;;;20.30;99.90;;;;;;4975887;28;20033;-67
2023/08/24 08:03:42;;;;;;;17.15;10.95;;;20.50;99.90;;;;;;5043605;28;20045;-68
2023/08/24 08:06:08;;;;;;;13.82;10.25;;;20.70;99.90;;;;;;5008436;28;20037;-68
2023/08/24 08:08:34;;;;;;;13.95;11.07;;;20.80;99.90;;;;;;5007323;28;20578;-68
2023/08/24 08:11:01;;;;;;;14.35;9.90;;;20.90;99.90;;;;;;4990629;28;20124;-68
2023/08/24 08:13:30;;;;;;;15.77;10.50;;;21.00;99.90;;;;;;4989143;28;20033;-68
2023/08/24 08:16:04;;;;;;;16.55;11.35;;;21.10;99.90;;;;;;5010677;28;20048;-68
2023/08/24 08:18:32;;;;;;;12.63;9.98;;;21.20;99.90;;;;;;5007960;28;21106;-68
2023/08/24 08:20:58;;;;;;;12.68;10.05;;;21.30;99.90;;;;;;5009848;28;20099;-67
2023/08/24 08:23:23;;;;;;;15.05;10.52;;;21.40;99.90;;;;;;4989192;28;20050;-68
2023/08/24 08:25:50;;;;;;;16.50;10.85;;;21.50;99.90;;;;;;5019282;28;20045;-68
2023/08/24 08:28:17;;;;;;;19.60;10.73;;;21.70;99.90;;;;;;5007892;28;20148;-69
2023/08/24 08:30:43;;;;;;;14.13;10.88;;;21.80;99.90;;;;;;5008996;28;20503;-69
2023/08/24 08:33:09;;;;;;;13.38;9.93;;;21.90;99.90;;;;;;5010069;28;20057;-68
2023/08/24 08:35:35;;;;;;;14.73;9.73;;;22.00;99.90;;;;;;5011577;28;20044;-68
2023/08/24 08:38:00;;;;;;;14.63;9.00;;;22.20;99.90;;;;;;4991722;28;20068;-67
2023/08/24 08:40:30;;;;;;;17.08;10.10;;;22.30;99.90;;;;;;5021862;28;20038;-66
2023/08/24 08:42:57;;;;;;;11.07;8.18;;;22.40;99.90;;;;;;5004850;28;20077;-66
2023/08/24 08:45:28;;;;;;;19.35;10.13;;;22.40;99.90;;;;;;5010591;28;20088;-67
2023/08/24 08:48:05;;;;;;;10.90;8.40;;;22.50;99.90;;;;;;5004662;28;20491;-68
2023/08/24 08:50:34;;;;;;;13.35;8.23;;;22.70;99.90;;;;;;5023408;28;20048;-68
2023/08/24 08:52:59;;;;;;;11.18;8.23;;;22.80;99.90;;;;;;5041955;28;20443;-69
2023/08/24 08:55:25;;;;;;;17.52;7.93;;;22.90;99.90;;;;;;4991326;28;20069;-69
2023/08/24 08:57:58;;;;;;;16.05;8.80;;;23.00;99.90;;;;;;4989828;28;20785;-69
2023/08/24 09:00:24;;;;;;;;;;;23.20;99.90;;;;;;5015630;28;20423;-69
2023/08/24 09:02:52;;;;;;;16.65;8.27;;;23.30;99.90;;;;;;5045979;28;19972;-67
2023/08/24 09:05:19;;;;;;;10.50;7.60;;;23.50;99.90;;;;;;5009849;28;20415;-70
2023/08/24 09:07:47;;;;;;;12.27;7.90;;;23.60;99.90;;;;;;5019399;28;20163;-69
2023/08/24 09:10:13;;;;;;;15.50;8.48;;;23.60;99.90;;;;;;5005697;28;20037;-68
2023/08/24 09:12:39;;;;;;;9.73;7.78;;;23.70;99.90;;;;;;5002899;28;20049;-69
2023/08/24 09:15:06;;;;;;;8.90;7.45;;;23.80;99.90;;;;;;5000800;28;20045;-69
2023/08/24 09:17:33;;;;;;;12.02;8.15;;;23.80;99.90;;;;;;5013723;28;20045;-68
2023/08/24 09:20:07;;;;;;;12.00;8.48;;;23.80;99.90;;;;;;4996457;28;20045;-69
2023/08/24 09:22:37;;;;;;;14.73;8.07;;;23.80;99.90;;;;;;5009568;28;20049;-67
2023/08/24 09:25:04;;;;;;;10.38;7.15;;;23.80;99.90;;;;;;4982707;28;20041;-68
2023/08/24 09:27:31;;;;;;;10.60;7.75;;;23.80;99.90;;;;;;5006201;28;20463;-67
2023/08/24 09:29:59;;;;;;;15.05;8.40;;;23.90;99.90;;;;;;5002418;28;20475;-67
2023/08/24 09:32:28;;;;;;;13.68;7.65;;;23.90;99.90;;;;;;4999045;28;20045;-67
2023/08/24 09:34:55;;;;;;;10.85;7.47;;;24.00;99.90;;;;;;5000954;28;20495;-68
2023/08/24 09:37:21;;;;;;;11.70;8.20;;;24.00;99.90;;;;;;4992534;28;20065;-68
2023/08/24 09:39:47;;;;;;;10.93;7.57;;;24.10;99.90;;;;;;5005845;28;20045;-68
2023/08/24 09:42:14;;;;;;;7.45;5.90;;;24.20;99.90;;;;;;5018973;28;20051;-69
2023/08/24 09:44:46;;;;;;;8.25;6.55;;;24.30;99.90;;;;;;5003953;28;20046;-69
2023/08/24 09:47:12;;;;;;;9.27;6.70;;;24.50;99.90;;;;;;5016073;28;20798;-69
2023/08/24 09:49:38;;;;;;;10.70;6.38;;;24.60;99.90;;;;;;4982146;28;20044;-68
2023/08/24 09:52:07;;;;;;;13.23;7.13;;;24.60;99.90;;;;;;4984556;28;20042;-68
2023/08/24 09:54:40;;;;;;;10.77;6.75;;;24.60;99.90;;;;;;4982672;28;20116;-68
2023/08/24 09:57:08;;;;;;;14.15;6.57;;;24.50;99.90;;;;;;5001063;28;20057;-68
2023/08/24 09:59:35;;;;;;;11.75;6.68;;;24.50;99.90;;;;;;4999027;28;20638;-68
2023/08/24 10:02:01;;;;;;;10.05;6.65;;;24.30;99.90;;;;;;4998856;28;20152;-68
2023/08/24 10:04:37;;;;;;;20.35;6.68;;;24.30;99.90;;;;;;5032138;28;20053;-67
2023/08/24 10:07:07;;;;;;;21.50;6.07;;;24.20;99.90;;;;;;5005738;28;20045;-68
2023/08/24 10:09:44;;;;;;;18.42;6.05;;;24.10;99.90;;;;;;5025158;28;20029;-67
2023/08/24 10:12:12;;;;;;;12.57;5.75;;;24.10;99.90;;;;;;4992059;28;20132;-68
2023/08/24 10:15:00;;;;;;;10.82;5.55;;;24.10;99.90;;;;;;5007235;28;20029;-68
2023/08/24 10:17:26;;;;;;;12.95;6.18;;;24.10;99.90;;;;;;5005279;28;20488;-67
2023/08/24 10:19:53;;;;;;;10.38;5.57;;;24.00;99.90;;;;;;5007244;28;20034;-68
2023/08/24 10:22:20;;;;;;;13.43;5.32;;;24.00;99.90;;;;;;5007939;28;20054;-66
2023/08/24 10:24:47;;;;;;;8.40;5.80;;;24.00;99.90;;;;;;5005468;28;20034;-68
2023/08/24 10:27:14;;;;;;;12.13;5.82;;;24.00;99.90;;;;;;5018691;28;20049;-68
2023/08/24 10:29:40;;;;;;;10.30;5.97;;;24.00;99.90;;;;;;5004850;28;20042;-68
2023/08/24 10:32:08;;;;;;;8.25;6.38;;;23.90;99.90;;;;;;5005232;28;20473;-68
2023/08/24 10:34:34;;;;;;;15.20;5.72;;;23.90;99.90;;;;;;4985863;28;20046;-69
2023/08/24 10:37:10;;;;;;;11.27;6.30;;;23.90;99.90;;;;;;5023354;28;20046;-68
2023/08/24 10:39:44;;;;;;;16.52;6.20;;;23.90;99.90;;;;;;5025196;28;20066;-68
2023/08/24 10:42:14;;;;;;;12.85;6.20;;;23.90;99.90;;;;;;5031225;28;20112;-68
2023/08/24 10:44:43;;;;;;;8.70;5.93;;;23.90;99.90;;;;;;5006970;28;20034;-68
2023/08/24 10:47:21;;;;;;;13.38;6.18;;;23.90;99.90;;;;;;5013609;28;20107;-68
2023/08/24 10:49:54;;;;;;;11.27;6.35;;;23.90;99.90;;;;;;5038175;28;20042;-68
2023/08/24 10:52:21;;;;;;;8.57;6.32;;;23.90;99.90;;;;;;5023089;28;20049;-68
2023/08/24 10:54:52;;;;;;;12.52;6.38;;;23.90;99.90;;;;;;5027933;28;20508;-68
2023/08/24 10:57:34;;;;;;;23.00;7.20;;;23.90;99.90;;;;;;5014999;28;20141;-68
2023/08/24 11:00:10;;;;;;;15.15;6.80;;;23.90;99.90;;;;;;5017848;28;20117;-67
2023/08/24 11:02:46;;;;;;;12.95;6.10;;;23.90;99.90;;;;;;5014024;28;20089;-75
2023/08/24 11:05:24;;;;;;;14.02;6.85;;;24.00;99.90;;;;;;5022466;28;20052;-75
2023/08/24 11:08:06;;;;;;;9.40;6.68;;;24.00;99.90;;;;;;5021916;28;20034;-75
2023/08/24 11:10:49;;;;;;;15.13;6.67;;;24.10;99.90;;;;;;5007540;28;20128;-76
2023/08/24 11:13:16;;;;;;;9.55;6.40;;;24.10;99.90;;;;;;5010055;28;20502;-75
2023/08/24 11:15:54;;;;;;;10.13;6.97;;;24.20;99.90;;;;;;5053036;28;20065;-75
2023/08/24 11:18:20;;;;;;;12.50;7.15;;;24.40;99.90;;;;;;5020275;28;20045;-74
2023/08/24 11:20:48;;;;;;;9.75;7.45;;;24.50;99.90;;;;;;5009092;28;20045;-75
2023/08/24 11:23:18;;;;;;;10.48;7.05;;;24.50;99.90;;;;;;4996449;28;20061;-74
2023/08/24 11:25:44;;;;;;;10.13;6.78;;;24.60;99.90;;;;;;5031502;28;20053;-74
2023/08/24 11:28:10;;;;;;;11.20;6.63;;;24.60;99.90;;;;;;5015411;28;20045;-75
2023/08/24 11:30:36;;;;;;;11.35;6.93;;;24.70;99.90;;;;;;4992792;28;20068;-74
2023/08/24 11:33:05;;;;;;;12.88;6.65;;;24.80;99.90;;;;;;5007594;28;20436;-75
2023/08/24 11:35:36;;;;;;;9.90;6.22;;;24.90;99.90;;;;;;5009035;28;20045;-74
2023/08/24 11:38:02;;;;;;;8.07;5.77;;;25.00;99.90;;;;;;5026489;28;20034;-74
2023/08/24 11:40:28;;;;;;;14.52;6.18;;;25.00;99.90;;;;;;5030133;28;20849;-75
2023/08/24 11:42:57;;;;;;;9.15;5.80;;;25.00;99.90;;;;;;5010321;28;20033;-75
2023/08/24 11:45:23;;;;;;;9.30;5.82;;;24.90;99.90;;;;;;5008922;28;20423;-75
2023/08/24 11:47:50;;;;;;;8.23;6.15;;;24.90;99.90;;;;;;5005017;28;20045;-74
2023/08/24 11:50:19;;;;;;;9.77;7.03;;;24.80;99.90;;;;;;5028548;28;20388;-75
2023/08/24 11:52:45;;;;;;;9.10;6.30;;;24.80;99.90;;;;;;4978993;28;20038;-75
2023/08/24 11:55:11;;;;;;;11.95;7.45;;;24.80;99.90;;;;;;5028036;28;20405;-74
2023/08/24 11:57:37;;;;;;;7.38;6.25;;;24.80;99.90;;;;;;5047936;28;20448;-75
2023/08/24 12:00:07;;;;;;;8.68;5.75;;;24.80;99.90;;;;;;5010629;28;20034;-75
2023/08/24 12:02:33;;;;;;;8.38;5.90;;;24.70;99.90;;;;;;5000768;28;20117;-75
2023/08/24 12:04:59;;;;;;;8.38;5.85;;;24.80;99.90;;;;;;4996726;28;20495;-75
2023/08/24 12:07:26;;;;;;;6.70;5.53;;;24.80;99.90;;;;;;4994399;28;20049;-75
2023/08/24 12:09:55;;;;;;;9.57;5.82;;;24.80;99.90;;;;;;5027559;28;20043;-76
2023/08/24 12:12:23;;;;;;;8.55;5.85;;;24.80;99.90;;;;;;5014844;28;20064;-75
2023/08/24 12:14:52;;;;;;;8.18;5.68;;;24.80;99.90;;;;;;5029648;28;20491;-75
2023/08/24 12:17:21;;;;;;;7.95;5.90;;;24.70;99.90;;;;;;4988701;28;20044;-76
2023/08/24 12:19:59;;;;;;;16.10;6.78;;;24.60;99.90;;;;;;5003036;28;20038;-75
2023/08/24 12:22:26;;;;;;;8.98;6.18;;;24.60;99.90;;;;;;4992966;28;20042;-75
2023/08/24 12:24:52;;;;;;;7.40;5.97;;;24.50;99.90;;;;;;5000379;28;20045;-75
2023/08/24 12:27:25;;;;;;;7.70;5.13;;;24.50;99.90;;;;;;5024150;28;20081;-76
2023/08/24 12:29:52;;;;;;;10.10;6.07;;;24.50;99.90;;;;;;4986450;28;20049;-75
2023/08/24 12:32:23;;;;;;;14.15;5.72;;;24.50;99.90;;;;;;5037513;28;20095;-75
2023/08/24 12:34:51;;;;;;;11.30;5.80;;;24.50;99.90;;;;;;5028364;28;20045;-75
2023/08/24 12:37:17;;;;;;;9.50;5.32;;;24.50;99.90;;;;;;5030107;28;20112;-75
2023/08/24 12:39:43;;;;;;;10.93;5.15;;;24.60;99.90;;;;;;5015785;28;20026;-75